Oriental Freesia — ZGCD7 — position and weather

sailwx.info

Track history (hours):
 
Tides and Currents Weather Stations Pressure Air Temp Water Temp Dewpoint Dewpoint Depression Visibility Wind Speed Wind Dir Waves Ship Positions

Oriental Freesia

Last reported at 2018-Jul-10 15:23 UTC. Time now 2018-Jul-17 15:25 UTC.
Position N 36°55' E 012°27'.

Length 134 m; draft 8.7 m.

Type: Ship (hazmat cat A). MMSI: 319349000.

Date/timePositionNaut miles runAvg speedWind from/ knotsBaromVisibWave heightAir tempDewpointWater temp
2018-Jul-10 15:23N 36°55' E 012°27'513.5
2018-Jul-10 15:00N 36°57' E 012°21'34013.5
2018-Jul-09 13:47N 37°44' E 005°17'413.5
2018-Jul-09 13:30N 37°44' E 005°12'2813.3
2018-Jul-09 11:23N 37°40' E 004°37'2013.4
2018-Jul-09 09:54N 37°36' E 004°13'513.4
2018-Jul-09 09:30N 37°34' E 004°06'713.1
2018-Jul-09 09:00N 37°33' E 003°58'713.0
2018-Jul-09 08:29N 37°31' E 003°50'612.8
2018-Jul-09 08:00N 37°30' E 003°43'712.8
2018-Jul-09 07:30N 37°29' E 003°34'612.9
2018-Jul-09 07:00N 37°27' E 003°27'713.0
2018-Jul-09 06:30N 37°26' E 003°19'813.1
2018-Jul-09 05:51N 37°24' E 003°08'513.1
2018-Jul-09 05:30N 37°23' E 003°03'713.3
2018-Jul-09 05:00N 37°22' E 002°54'713.4
2018-Jul-09 04:30N 37°20' E 002°46'713.5
2018-Jul-09 04:00N 37°19' E 002°38'713.4
2018-Jul-09 03:30N 37°17' E 002°30'913.4
2018-Jul-09 02:49N 37°15' E 002°19'1914.0
2018-Jul-09 01:26N 37°11' E 001°55'814.1
2018-Jul-09 00:51N 37°09' E 001°45'34213.5
2018-Jul-07 23:34N 36°00' W 005°13'114.9
2018-Jul-07 23:30N 36°00' W 005°14'815.2
2018-Jul-07 23:00N 35°59' W 005°23'714.6
2018-Jul-07 22:30N 35°57' W 005°32'814.3
2018-Jul-07 21:57N 35°54' W 005°41'23111.9
2018-Jul-07 02:35N 37°44' W 009°54'113.4
2018-Jul-07 02:30N 37°45' W 009°55'1013.3
2018-Jul-07 01:45N 37°55' W 009°58'313.2
2018-Jul-07 01:30N 37°58' W 009°59'1113.4
2018-Jul-07 00:43N 38°08' W 010°02'313.9
2018-Jul-07 00:30N 38°11' W 010°02'1713.9
2018-Jul-06 23:16N 38°28' W 010°07'4613.8
2018-Jul-06 19:57N 39°13' W 010°11'  
2018-Jul-04 13:53N 49°41' W 003°45'1413.7
2018-Jul-04 12:54N 49°47' W 003°26'513.0
2018-Jul-04 12:30N 49°49' W 003°19'612.5
2018-Jul-04 12:00N 49°53' W 003°11'612.2
2018-Jul-04 11:30N 49°56' W 003°03'612.1
2018-Jul-04 11:00N 49°59' W 002°55'612.0
2018-Jul-04 10:30N 50°01' W 002°46'8114.4
2018-Jul-04 04:53N 50°23' W 000°45'2714.7
2018-Jul-04 03:05N 50°30' W 000°04'313.6
2018-Jul-04 02:50N 50°31' E 000°01'1113.1
2018-Jul-04 02:02N 50°34' E 000°17'012.6
2018-Jul-04 02:00N 50°34' E 000°17'612.4
2018-Jul-04 01:29N 50°36' E 000°27'612.0
2018-Jul-04 01:00N 50°38' E 000°35'612.0
2018-Jul-04 00:30N 50°41' E 000°43'612.2
2018-Jul-04 00:00N 50°45' E 000°51'612.6
2018-Jul-03 23:30N 50°49' E 000°58'713.5
2018-Jul-03 23:00N 50°53' E 001°07'714.2
2018-Jul-03 22:30N 50°58' E 001°15'815.1
2018-Jul-03 22:00N 51°03' E 001°25'815.6
2018-Jul-03 21:30N 51°07' E 001°34'815.1
2018-Jul-03 21:00N 51°12' E 001°44'713.9
2018-Jul-03 20:30N 51°18' E 001°50'713.2
2018-Jul-03 20:00N 51°24' E 001°55'5 9.6
2018-Jul-03 19:30N 51°24' E 002°03'612.8
2018-Jul-03 19:00N 51°22' E 002°12'611.5
2018-Jul-03 18:30N 51°21' E 002°21'611.8
2018-Jul-03 18:00N 51°23' E 002°30'611.2
2018-Jul-03 17:30N 51°22' E 002°39'5 9.4
2018-Jul-03 17:00N 51°22' E 002°47'510.8
2018-Jul-03 16:30N 51°23' E 002°55'510.6
2018-Jul-03 16:00N 51°24' E 003°04'510.2
2018-Jul-03 15:30N 51°24' E 003°12'5 9.6
2018-Jul-03 15:00N 51°25' E 003°20'5 9.6
2018-Jul-03 14:30N 51°25' E 003°27'5 9.5
2018-Jul-03 14:00N 51°26' E 003°35'4 7.8
2018-Jul-03 13:30N 51°26' E 003°41'510.2
2018-Jul-03 13:00N 51°22' E 003°46'510.4
2018-Jul-03 12:30N 51°22' E 003°54'510.7
2018-Jul-03 12:00N 51°26' E 003°59'5 9.9
2018-Jul-03 11:30N 51°22' E 004°04'510.8
2018-Jul-03 11:00N 51°24' E 004°13'4 7.9
2018-Jul-03 10:30N 51°21' E 004°17'0 0.0
2018-Jul-03 10:00N 51°21' E 004°17'0 0.0
2018-Jul-03 09:30N 51°21' E 004°17'1 1.5
2018-Jul-03 09:00N 51°20' E 004°18'3 6.3
2018-Jul-03 08:30N 51°17' E 004°20'3 5.3
2018-Jul-03 08:00N 51°15' E 004°22'0 0.3
2018-Jul-03 07:30N 51°15' E 004°21'0 0.0
2018-Jul-03 07:00N 51°15' E 004°21'0 0.0
2018-Jul-03 06:30N 51°15' E 004°21'0 0.0
2018-Jul-03 06:00N 51°15' E 004°21'0 0.0
2018-Jul-03 05:27N 51°15' E 004°21'0 0.0
2018-Jul-03 05:00N 51°15' E 004°21'0 0.0
2018-Jul-03 04:24N 51°15' E 004°21'0 0.0
2018-Jul-03 04:00N 51°15' E 004°21'0 0.0
2018-Jul-03 03:30N 51°15' E 004°21'0 0.0
2018-Jul-03 02:54N 51°15' E 004°21'0 0.0
2018-Jul-03 02:27N 51°15' E 004°21'0 0.0
2018-Jul-03 01:57N 51°15' E 004°21'0 0.0
2018-Jul-03 01:30N 51°15' E 004°21'0 0.0
2018-Jul-03 01:00N 51°15' E 004°21'0 0.0
2018-Jul-03 00:30N 51°15' E 004°21'0 0.0
2018-Jul-03 00:00N 51°15' E 004°21'0 0.0
2018-Jul-02 23:30N 51°15' E 004°21'0 0.0
2018-Jul-02 23:00N 51°15' E 004°21'0 0.0
2018-Jul-02 22:30N 51°15' E 004°21'0 0.0
2018-Jul-02 22:00N 51°15' E 004°21'0 0.0
2018-Jul-02 21:30N 51°15' E 004°21'0 0.0
2018-Jul-02 21:00N 51°15' E 004°21'0 0.0
2018-Jul-02 20:30N 51°15' E 004°21'0 0.0
2018-Jul-02 20:00N 51°15' E 004°21'0 0.0
2018-Jul-02 19:30N 51°15' E 004°21'0 0.0
2018-Jul-02 19:00N 51°15' E 004°21'0 0.0
2018-Jul-02 18:30N 51°15' E 004°21'0 0.0
2018-Jul-02 18:00N 51°15' E 004°21'0 0.0
2018-Jul-02 17:30N 51°15' E 004°21'0 0.0
2018-Jul-02 17:00N 51°15' E 004°21'0 0.0
2018-Jul-02 16:30N 51°15' E 004°21'0 0.0
2018-Jul-02 16:00N 51°15' E 004°21'0 0.0
2018-Jul-02 15:27N 51°15' E 004°21'0 0.0
2018-Jul-02 14:57N 51°15' E 004°21'0 0.0
2018-Jul-02 14:30N 51°15' E 004°21'0 0.0
2018-Jul-02 14:00N 51°15' E 004°21'0 0.0
2018-Jul-02 13:27N 51°15' E 004°21'0 0.0
2018-Jul-02 13:00N 51°15' E 004°21'0 0.0
2018-Jul-02 12:30N 51°15' E 004°21'0 0.0
2018-Jul-02 11:57N 51°15' E 004°21'0 0.0
2018-Jul-02 11:27N 51°15' E 004°21'0 0.0
2018-Jul-02 11:00N 51°15' E 004°21'0 0.0
2018-Jul-02 10:21N 51°15' E 004°21'0 0.0
2018-Jul-02 10:00N 51°15' E 004°21'0 0.0
2018-Jul-02 09:27N 51°15' E 004°21'0 0.0
2018-Jul-02 08:57N 51°15' E 004°21'0 0.0
2018-Jul-02 08:30N 51°15' E 004°21'0 0.0
2018-Jul-02 07:57N 51°15' E 004°21'0 0.0
2018-Jul-02 07:30N 51°15' E 004°21'0 0.0
2018-Jul-02 07:00N 51°15' E 004°21'0 0.0
2018-Jul-02 06:27N 51°15' E 004°21'0 0.0
2018-Jul-02 05:57N 51°15' E 004°21'0 0.0
2018-Jul-02 05:30N 51°15' E 004°21'0 0.0
2018-Jul-02 04:57N 51°15' E 004°21'0 0.0
2018-Jul-02 04:21N 51°15' E 004°21'0 0.0
2018-Jul-02 04:00N 51°15' E 004°21'0 0.0
2018-Jul-02 03:30N 51°15' E 004°21'0 0.0
2018-Jul-02 02:57N 51°15' E 004°21'0 0.0
2018-Jul-02 02:30N 51°15' E 004°21'0 0.0
2018-Jul-02 02:00N 51°15' E 004°21'0 0.0
2018-Jul-02 01:30N 51°15' E 004°21'0 0.0
2018-Jul-02 00:57N 51°15' E 004°21'0 0.0
2018-Jul-02 00:30N 51°15' E 004°21'0 0.0
2018-Jul-02 00:00N 51°15' E 004°21'0 0.0
2018-Jul-01 23:30N 51°15' E 004°21'0 0.0
2018-Jul-01 23:00N 51°15' E 004°21'0 0.0
2018-Jul-01 22:27N 51°15' E 004°21'0 0.0
2018-Jul-01 21:54N 51°15' E 004°21'0 0.0
2018-Jul-01 21:30N 51°15' E 004°21'0 0.0
2018-Jul-01 21:00N 51°15' E 004°21'0 0.0
2018-Jul-01 20:30N 51°15' E 004°21'0 0.0
2018-Jul-01 20:00N 51°15' E 004°21'0 0.0
2018-Jul-01 19:30N 51°15' E 004°21'0 0.0
2018-Jul-01 19:00N 51°15' E 004°21'0 0.0
2018-Jul-01 18:30N 51°15' E 004°21'0 0.0
2018-Jul-01 18:00N 51°15' E 004°21'0 0.0
2018-Jul-01 17:30N 51°15' E 004°21'0 0.0
2018-Jul-01 16:57N 51°15' E 004°21'0 0.0
2018-Jul-01 16:30N 51°15' E 004°21'0 0.0
2018-Jul-01 16:00N 51°15' E 004°21'0 0.0
2018-Jul-01 15:24N 51°15' E 004°21'0 0.0
2018-Jul-01 15:00N 51°15' E 004°21'0 0.0
2018-Jul-01 14:30N 51°15' E 004°21'0 0.0
2018-Jul-01 14:00N 51°15' E 004°21'0 0.0
2018-Jul-01 13:30N 51°15' E 004°21'0 0.0
2018-Jul-01 13:00N 51°15' E 004°21'0 0.0
2018-Jul-01 12:30N 51°15' E 004°21'0 0.7
2018-Jul-01 12:00N 51°15' E 004°22'3 5.7
2018-Jul-01 11:30N 51°18' E 004°20'1 0.3
2018-Jul-01 07:32N 51°19' E 004°18'0 0.0
2018-Jul-01 05:32N 51°19' E 004°18'0 0.0
2018-Jul-01 05:24N 51°19' E 004°18'0 0.0
2018-Jul-01 04:05N 51°19' E 004°18'0 0.0
2018-Jul-01 03:59N 51°19' E 004°18'0 0.0
2018-Jul-01 03:27N 51°19' E 004°18'0 0.0
2018-Jul-01 02:11N 51°19' E 004°18'0 0.0
2018-Jul-01 01:50N 51°19' E 004°18'0 0.0
2018-Jul-01 01:29N 51°19' E 004°18'0 0.0
2018-Jul-01 00:56N 51°19' E 004°18'0 0.0
2018-Jul-01 00:20N 51°19' E 004°18'0 0.0
2018-Jun-30 23:20N 51°19' E 004°18'0 0.0
2018-Jun-30 22:56N 51°19' E 004°18'0 0.0
2018-Jun-30 22:20N 51°19' E 004°18'0 0.0
2018-Jun-30 21:56N 51°19' E 004°18'0 0.0
2018-Jun-30 21:26N 51°19' E 004°18'0 0.0
2018-Jun-30 20:56N 51°19' E 004°18'0 0.0
2018-Jun-30 20:20N 51°19' E 004°18'0 0.0
2018-Jun-30 19:44N 51°19' E 004°18'0 0.0
2018-Jun-30 19:08N 51°19' E 004°18'0 0.0
2018-Jun-30 18:38N 51°19' E 004°18'0 0.0
2018-Jun-30 18:20N 51°19' E 004°18'0 0.0
2018-Jun-30 17:50N 51°19' E 004°18'0 0.0
2018-Jun-30 17:29N 51°19' E 004°18'0 0.0
2018-Jun-30 16:53N 51°19' E 004°18'0 0.0
2018-Jun-30 16:02N 51°19' E 004°18'0 0.0
2018-Jun-30 15:56N 51°19' E 004°18'  
Track history (hours):
 
Tides and Currents Weather Stations Pressure Air Temp Water Temp Dewpoint Dewpoint Depression Visibility Wind Speed Wind Dir Waves Ship Positions

Oriental Freesia

Last reported at 2018-Jul-10 15:23 UTC. Time now 2018-Jul-17 15:25 UTC.
Position N 36°55' E 012°27'.

Length 134 m; draft 8.7 m.

Type: Ship (hazmat cat A). MMSI: 319349000.

Date/timePositionNaut miles runAvg speedWind from/ knotsBaromVisibWave heightAir tempDewpointWater temp
2018-Jul-10 15:23N 36°55' E 012°27'513.5
2018-Jul-10 15:00N 36°57' E 012°21'34013.5
2018-Jul-09 13:47N 37°44' E 005°17'413.5
2018-Jul-09 13:30N 37°44' E 005°12'2813.3
2018-Jul-09 11:23N 37°40' E 004°37'2013.4
2018-Jul-09 09:54N 37°36' E 004°13'513.4
2018-Jul-09 09:30N 37°34' E 004°06'713.1
2018-Jul-09 09:00N 37°33' E 003°58'713.0
2018-Jul-09 08:29N 37°31' E 003°50'612.8
2018-Jul-09 08:00N 37°30' E 003°43'712.8
2018-Jul-09 07:30N 37°29' E 003°34'612.9
2018-Jul-09 07:00N 37°27' E 003°27'713.0
2018-Jul-09 06:30N 37°26' E 003°19'813.1
2018-Jul-09 05:51N 37°24' E 003°08'513.1
2018-Jul-09 05:30N 37°23' E 003°03'713.3
2018-Jul-09 05:00N 37°22' E 002°54'713.4
2018-Jul-09 04:30N 37°20' E 002°46'713.5
2018-Jul-09 04:00N 37°19' E 002°38'713.4
2018-Jul-09 03:30N 37°17' E 002°30'913.4
2018-Jul-09 02:49N 37°15' E 002°19'1914.0
2018-Jul-09 01:26N 37°11' E 001°55'814.1
2018-Jul-09 00:51N 37°09' E 001°45'34213.5
2018-Jul-07 23:34N 36°00' W 005°13'114.9
2018-Jul-07 23:30N 36°00' W 005°14'815.2
2018-Jul-07 23:00N 35°59' W 005°23'714.6
2018-Jul-07 22:30N 35°57' W 005°32'814.3
2018-Jul-07 21:57N 35°54' W 005°41'23111.9
2018-Jul-07 02:35N 37°44' W 009°54'113.4
2018-Jul-07 02:30N 37°45' W 009°55'1013.3
2018-Jul-07 01:45N 37°55' W 009°58'313.2
2018-Jul-07 01:30N 37°58' W 009°59'1113.4
2018-Jul-07 00:43N 38°08' W 010°02'313.9
2018-Jul-07 00:30N 38°11' W 010°02'1713.9
2018-Jul-06 23:16N 38°28' W 010°07'4613.8
2018-Jul-06 19:57N 39°13' W 010°11'  
2018-Jul-04 13:53N 49°41' W 003°45'1413.7
2018-Jul-04 12:54N 49°47' W 003°26'513.0
2018-Jul-04 12:30N 49°49' W 003°19'612.5
2018-Jul-04 12:00N 49°53' W 003°11'612.2
2018-Jul-04 11:30N 49°56' W 003°03'612.1
2018-Jul-04 11:00N 49°59' W 002°55'612.0
2018-Jul-04 10:30N 50°01' W 002°46'8114.4
2018-Jul-04 04:53N 50°23' W 000°45'2714.7
2018-Jul-04 03:05N 50°30' W 000°04'313.6
2018-Jul-04 02:50N 50°31' E 000°01'1113.1
2018-Jul-04 02:02N 50°34' E 000°17'012.6
2018-Jul-04 02:00N 50°34' E 000°17'612.4
2018-Jul-04 01:29N 50°36' E 000°27'612.0
2018-Jul-04 01:00N 50°38' E 000°35'612.0
2018-Jul-04 00:30N 50°41' E 000°43'612.2
2018-Jul-04 00:00N 50°45' E 000°51'612.6
2018-Jul-03 23:30N 50°49' E 000°58'713.5
2018-Jul-03 23:00N 50°53' E 001°07'714.2
2018-Jul-03 22:30N 50°58' E 001°15'815.1
2018-Jul-03 22:00N 51°03' E 001°25'815.6
2018-Jul-03 21:30N 51°07' E 001°34'815.1
2018-Jul-03 21:00N 51°12' E 001°44'713.9
2018-Jul-03 20:30N 51°18' E 001°50'713.2
2018-Jul-03 20:00N 51°24' E 001°55'5 9.6
2018-Jul-03 19:30N 51°24' E 002°03'612.8
2018-Jul-03 19:00N 51°22' E 002°12'611.5
2018-Jul-03 18:30N 51°21' E 002°21'611.8
2018-Jul-03 18:00N 51°23' E 002°30'611.2
2018-Jul-03 17:30N 51°22' E 002°39'5 9.4
2018-Jul-03 17:00N 51°22' E 002°47'510.8
2018-Jul-03 16:30N 51°23' E 002°55'510.6
2018-Jul-03 16:00N 51°24' E 003°04'510.2
2018-Jul-03 15:30N 51°24' E 003°12'5 9.6
2018-Jul-03 15:00N 51°25' E 003°20'5 9.6
2018-Jul-03 14:30N 51°25' E 003°27'5 9.5
2018-Jul-03 14:00N 51°26' E 003°35'4 7.8
2018-Jul-03 13:30N 51°26' E 003°41'510.2
2018-Jul-03 13:00N 51°22' E 003°46'510.4
2018-Jul-03 12:30N 51°22' E 003°54'510.7
2018-Jul-03 12:00N 51°26' E 003°59'5 9.9
2018-Jul-03 11:30N 51°22' E 004°04'510.8
2018-Jul-03 11:00N 51°24' E 004°13'4 7.9
2018-Jul-03 10:30N 51°21' E 004°17'0 0.0
2018-Jul-03 10:00N 51°21' E 004°17'0 0.0
2018-Jul-03 09:30N 51°21' E 004°17'1 1.5
2018-Jul-03 09:00N 51°20' E 004°18'3 6.3
2018-Jul-03 08:30N 51°17' E 004°20'3 5.3
2018-Jul-03 08:00N 51°15' E 004°22'0 0.3
2018-Jul-03 07:30N 51°15' E 004°21'0 0.0
2018-Jul-03 07:00N 51°15' E 004°21'0 0.0
2018-Jul-03 06:30N 51°15' E 004°21'0 0.0
2018-Jul-03 06:00N 51°15' E 004°21'0 0.0
2018-Jul-03 05:27N 51°15' E 004°21'0 0.0
2018-Jul-03 05:00N 51°15' E 004°21'0 0.0
2018-Jul-03 04:24N 51°15' E 004°21'0 0.0
2018-Jul-03 04:00N 51°15' E 004°21'0 0.0
2018-Jul-03 03:30N 51°15' E 004°21'0 0.0
2018-Jul-03 02:54N 51°15' E 004°21'0 0.0
2018-Jul-03 02:27N 51°15' E 004°21'0 0.0
2018-Jul-03 01:57N 51°15' E 004°21'0 0.0
2018-Jul-03 01:30N 51°15' E 004°21'0 0.0
2018-Jul-03 01:00N 51°15' E 004°21'0 0.0
2018-Jul-03 00:30N 51°15' E 004°21'0 0.0
2018-Jul-03 00:00N 51°15' E 004°21'0 0.0
2018-Jul-02 23:30N 51°15' E 004°21'0 0.0
2018-Jul-02 23:00N 51°15' E 004°21'0 0.0
2018-Jul-02 22:30N 51°15' E 004°21'0 0.0
2018-Jul-02 22:00N 51°15' E 004°21'0 0.0
2018-Jul-02 21:30N 51°15' E 004°21'0 0.0
2018-Jul-02 21:00N 51°15' E 004°21'0 0.0
2018-Jul-02 20:30N 51°15' E 004°21'0 0.0
2018-Jul-02 20:00N 51°15' E 004°21'0 0.0
2018-Jul-02 19:30N 51°15' E 004°21'0 0.0
2018-Jul-02 19:00N 51°15' E 004°21'0 0.0
2018-Jul-02 18:30N 51°15' E 004°21'0 0.0
2018-Jul-02 18:00N 51°15' E 004°21'0 0.0
2018-Jul-02 17:30N 51°15' E 004°21'0 0.0
2018-Jul-02 17:00N 51°15' E 004°21'0 0.0
2018-Jul-02 16:30N 51°15' E 004°21'0 0.0
2018-Jul-02 16:00N 51°15' E 004°21'0 0.0
2018-Jul-02 15:27N 51°15' E 004°21'0 0.0
2018-Jul-02 14:57N 51°15' E 004°21'0 0.0
2018-Jul-02 14:30N 51°15' E 004°21'0 0.0
2018-Jul-02 14:00N 51°15' E 004°21'0 0.0
2018-Jul-02 13:27N 51°15' E 004°21'0 0.0
2018-Jul-02 13:00N 51°15' E 004°21'0 0.0
2018-Jul-02 12:30N 51°15' E 004°21'0 0.0
2018-Jul-02 11:57N 51°15' E 004°21'0 0.0
2018-Jul-02 11:27N 51°15' E 004°21'0 0.0
2018-Jul-02 11:00N 51°15' E 004°21'0 0.0
2018-Jul-02 10:21N 51°15' E 004°21'0 0.0
2018-Jul-02 10:00N 51°15' E 004°21'0 0.0
2018-Jul-02 09:27N 51°15' E 004°21'0 0.0
2018-Jul-02 08:57N 51°15' E 004°21'0 0.0
2018-Jul-02 08:30N 51°15' E 004°21'0 0.0
2018-Jul-02 07:57N 51°15' E 004°21'0 0.0
2018-Jul-02 07:30N 51°15' E 004°21'0 0.0
2018-Jul-02 07:00N 51°15' E 004°21'0 0.0
2018-Jul-02 06:27N 51°15' E 004°21'0 0.0
2018-Jul-02 05:57N 51°15' E 004°21'0 0.0
2018-Jul-02 05:30N 51°15' E 004°21'0 0.0
2018-Jul-02 04:57N 51°15' E 004°21'0 0.0
2018-Jul-02 04:21N 51°15' E 004°21'0 0.0
2018-Jul-02 04:00N 51°15' E 004°21'0 0.0
2018-Jul-02 03:30N 51°15' E 004°21'0 0.0
2018-Jul-02 02:57N 51°15' E 004°21'0 0.0
2018-Jul-02 02:30N 51°15' E 004°21'0 0.0
2018-Jul-02 02:00N 51°15' E 004°21'0 0.0
2018-Jul-02 01:30N 51°15' E 004°21'0 0.0
2018-Jul-02 00:57N 51°15' E 004°21'0 0.0
2018-Jul-02 00:30N 51°15' E 004°21'0 0.0
2018-Jul-02 00:00N 51°15' E 004°21'0 0.0
2018-Jul-01 23:30N 51°15' E 004°21'0 0.0
2018-Jul-01 23:00N 51°15' E 004°21'0 0.0
2018-Jul-01 22:27N 51°15' E 004°21'0 0.0
2018-Jul-01 21:54N 51°15' E 004°21'0 0.0
2018-Jul-01 21:30N 51°15' E 004°21'0 0.0
2018-Jul-01 21:00N 51°15' E 004°21'0 0.0
2018-Jul-01 20:30N 51°15' E 004°21'0 0.0
2018-Jul-01 20:00N 51°15' E 004°21'0 0.0
2018-Jul-01 19:30N 51°15' E 004°21'0 0.0
2018-Jul-01 19:00N 51°15' E 004°21'0 0.0
2018-Jul-01 18:30N 51°15' E 004°21'0 0.0
2018-Jul-01 18:00N 51°15' E 004°21'0 0.0
2018-Jul-01 17:30N 51°15' E 004°21'0 0.0
2018-Jul-01 16:57N 51°15' E 004°21'0 0.0
2018-Jul-01 16:30N 51°15' E 004°21'0 0.0
2018-Jul-01 16:00N 51°15' E 004°21'0 0.0
2018-Jul-01 15:24N 51°15' E 004°21'0 0.0
2018-Jul-01 15:00N 51°15' E 004°21'0 0.0
2018-Jul-01 14:30N 51°15' E 004°21'0 0.0
2018-Jul-01 14:00N 51°15' E 004°21'0 0.0
2018-Jul-01 13:30N 51°15' E 004°21'0 0.0
2018-Jul-01 13:00N 51°15' E 004°21'0 0.0
2018-Jul-01 12:30N 51°15' E 004°21'0 0.7
2018-Jul-01 12:00N 51°15' E 004°22'3 5.7
2018-Jul-01 11:30N 51°18' E 004°20'1 0.3
2018-Jul-01 07:32N 51°19' E 004°18'0 0.0
2018-Jul-01 05:32N 51°19' E 004°18'0 0.0
2018-Jul-01 05:24N 51°19' E 004°18'0 0.0
2018-Jul-01 04:05N 51°19' E 004°18'0 0.0
2018-Jul-01 03:59N 51°19' E 004°18'0 0.0
2018-Jul-01 03:27N 51°19' E 004°18'0 0.0
2018-Jul-01 02:11N 51°19' E 004°18'0 0.0
2018-Jul-01 01:50N 51°19' E 004°18'0 0.0
2018-Jul-01 01:29N 51°19' E 004°18'0 0.0
2018-Jul-01 00:56N 51°19' E 004°18'0 0.0
2018-Jul-01 00:20N 51°19' E 004°18'0 0.0
2018-Jun-30 23:20N 51°19' E 004°18'0 0.0
2018-Jun-30 22:56N 51°19' E 004°18'0 0.0
2018-Jun-30 22:20N 51°19' E 004°18'0 0.0
2018-Jun-30 21:56N 51°19' E 004°18'0 0.0
2018-Jun-30 21:26N 51°19' E 004°18'0 0.0
2018-Jun-30 20:56N 51°19' E 004°18'0 0.0
2018-Jun-30 20:20N 51°19' E 004°18'0 0.0
2018-Jun-30 19:44N 51°19' E 004°18'0 0.0
2018-Jun-30 19:08N 51°19' E 004°18'0 0.0
2018-Jun-30 18:38N 51°19' E 004°18'0 0.0
2018-Jun-30 18:20N 51°19' E 004°18'0 0.0
2018-Jun-30 17:50N 51°19' E 004°18'0 0.0
2018-Jun-30 17:29N 51°19' E 004°18'0 0.0
2018-Jun-30 16:53N 51°19' E 004°18'0 0.0
2018-Jun-30 16:02N 51°19' E 004°18'0 0.0
2018-Jun-30 15:56N 51°19' E 004°18'  

Dump ship's entire track history